Aeroporto :
LOGIN :

Iscrizione | Disclaimer

   EN    FR    IT 

 










Sommario :    VFR   VFR Marginale   IFR   IFR Intensivo   IFR Molto Intensivo
Visibilità : 
Base nubi : 
>= 8 km
>= 3000ft
5 / 8 km
1000 / 3000 ft
1500m / 5 km
500 / 1000 ft
800 / 1500m
200 / 500 ft
< 800m
< 200 ft
Simboli :   Temporali  Nebbia  Neve Forte  Precipitazioni Forti  Vento > 20 kt
SIGMETs :   Varie  Temporali  Ghiacco  Turbolenza  Onda orograficha  Ceneri Vulcaniche






- Altitudine del aeroporto : 306 ft
- Codice IATA : EMA


EGNX - Nottingham East Midlands

ULTIMO METAR :
  • 210050Z 13009KT 9999 BKN012 OVC040 14/13 Q0997

METARs OBSOLETI :
  • 210020Z 13010KT 9999 FEW011 14/13 Q0997
  • 202350Z 14009KT 9999 FEW011 14/12 Q0997
  • 202320Z 13011KT 9999 FEW012 14/12 Q0997
  • 202250Z 14010KT 120V190 9999 FEW015 14/12 Q0997
  • 202220Z 13010KT 110V190 9999 FEW015 14/12 Q0998

TAF TAF EGNX
Valido dal 21 a 00 ore il 22 a 00 ore UTC


202258Z 2100/2124 13009KT 9999 FEW015
BECMG 2100/2103 BKN010
TEMPO 2103/2115 4000 RADZ +RA BKN004
BECMG 2112/2115 22010KT
PROB40
TEMPO 2115/2121 6000 RA
BECMG 2118/2121 SCT015
ATIS : +44 1332 852 852 (ext 3201)



MetMap, La meteo Aeronautica in un colpo d'occhio ! - Copyright ORBIFLY Dicembre 2007 - Disclaimer

ORBIFLY MET'MAP TEAM :

Programmazione e sviluppo : Alexandra Zaïnal
Concezione : Baudouin d'Aumeries
Aiuto per la programmazione : Marc-Olivier Méhu
Supporto tecnico e logistico : Manuel Goepfert
Aiuto per la traduzione : Arnaldo La Scala

Contatto : metmap@orbifly.com




FONTI E CREDITI :

   NOAA